Time;durP1;ratioP1;P1;durP2;ratioP2;P2;SDS_P1;SDS_P2;PMS_P1;PMS_P2;Temp;Humidity;BMP_temperature;BMP_pressure;BME280_temperature;BME280_humidity;BME280_pressure;Samples;Min_cycle;Max_cycle;Signal;HPM_P1;HPM_P2
2021/04/25 00:02:23;;;;;;;1999.90;999.90;;;9.50;9.00;;;;;;5016548;28;20816;-79
2021/04/25 00:04:48;;;;;;;1999.90;999.90;;;9.50;8.30;;;;;;5016482;28;20185;-81
2021/04/25 00:07:14;;;;;;;1999.90;999.90;;;9.40;8.70;;;;;;4998736;28;20428;-79
2021/04/25 00:09:41;;;;;;;1999.90;999.90;;;9.50;9.60;;;;;;5016443;28;20197;-81
2021/04/25 00:12:07;;;;;;;1999.90;999.90;;;9.40;10.30;;;;;;5016296;28;20239;-80
2021/04/25 00:14:33;;;;;;;1999.90;999.90;;;9.40;10.60;;;;;;5016166;28;20220;-79
2021/04/25 00:16:59;;;;;;;1999.90;999.90;;;9.40;10.70;;;;;;5016587;28;20577;-81
2021/04/25 00:19:25;;;;;;;1999.90;999.90;;;9.30;11.00;;;;;;5016027;28;20166;-79
2021/04/25 00:21:51;;;;;;;1999.90;999.90;;;9.20;14.50;;;;;;5016232;28;20554;-80
2021/04/25 00:24:16;;;;;;;1999.90;999.90;;;9.00;16.30;;;;;;5016179;28;20170;-79
2021/04/25 00:26:42;;;;;;;1999.90;999.90;;;8.90;18.50;;;;;;5016111;28;20197;-79
2021/04/25 00:29:08;;;;;;;1999.90;999.90;;;8.90;20.20;;;;;;5016123;28;20245;-80
2021/04/25 00:31:34;;;;;;;1999.90;999.90;;;9.00;19.30;;;;;;5016262;28;20239;-79
2021/04/25 00:34:00;;;;;;;1999.90;999.90;;;9.10;18.70;;;;;;5017013;28;20409;-81
2021/04/25 00:36:26;;;;;;;1999.90;999.90;;;8.90;20.40;;;;;;5017148;28;20249;-81
2021/04/25 00:38:53;;;;;;;1999.90;999.90;;;8.80;21.10;;;;;;4999686;28;20251;-82
2021/04/25 00:41:19;;;;;;;1999.90;999.90;;;8.80;22.00;;;;;;4998808;28;20189;-81
2021/04/25 00:43:44;;;;;;;1999.90;999.90;;;8.70;25.90;;;;;;5016205;28;20166;-81
2021/04/25 00:46:10;;;;;;;1999.90;999.90;;;8.70;28.60;;;;;;5016132;28;20216;-79
2021/04/25 00:48:36;;;;;;;1999.90;999.90;;;8.60;35.10;;;;;;4998707;28;20192;-80
2021/04/25 00:51:03;;;;;;;1999.90;999.90;;;8.60;28.60;;;;;;5016666;28;20161;-80
2021/04/25 00:53:29;;;;;;;1999.90;999.90;;;8.70;26.90;;;;;;5016017;28;20200;-81
2021/04/25 00:55:55;;;;;;;1999.90;999.90;;;8.60;26.50;;;;;;4998210;28;20193;-81
2021/04/25 00:58:22;;;;;;;1999.90;999.90;;;8.60;25.90;;;;;;5015871;28;20424;-80
2021/04/25 01:00:47;;;;;;;1999.90;999.90;;;8.50;28.30;;;;;;5015945;28;20169;-78
2021/04/25 01:03:14;;;;;;;1999.90;999.90;;;8.60;28.80;;;;;;5015466;28;20193;-79
2021/04/25 01:05:40;;;;;;;1999.90;999.90;;;8.40;34.60;;;;;;5000657;28;20519;-80
2021/04/25 01:08:05;;;;;;;1999.90;999.90;;;8.20;53.20;;;;;;5002366;28;20196;-80
2021/04/25 01:10:31;;;;;;;1999.90;999.90;;;8.20;53.30;;;;;;5019782;28;20162;-79
2021/04/25 01:12:59;;;;;;;1999.90;999.90;;;8.10;51.90;;;;;;5019562;28;20258;-80
2021/04/25 01:15:26;;;;;;;1999.90;999.90;;;8.10;50.50;;;;;;5002322;28;20448;-80
2021/04/25 01:17:51;;;;;;;1999.90;999.90;;;8.10;52.20;;;;;;5001561;28;20214;-80
2021/04/25 01:20:20;;;;;;;1999.90;999.90;;;8.10;50.00;;;;;;5019425;28;20184;-80
2021/04/25 01:22:46;;;;;;;1999.90;999.90;;;8.00;52.90;;;;;;5019056;28;20198;-79
2021/04/25 01:25:14;;;;;;;1999.90;999.90;;;7.80;60.70;;;;;;5019025;28;20212;-80
2021/04/25 01:27:39;;;;;;;1999.90;999.90;;;7.70;70.10;;;;;;5018761;28;20181;-80
2021/04/25 01:30:08;;;;;;;1999.90;999.90;;;7.60;74.90;;;;;;5019032;28;20162;-80
2021/04/25 01:32:34;;;;;;;1999.90;999.90;;;7.40;80.30;;;;;;5019065;28;20405;-80
2021/04/25 01:35:00;;;;;;;1999.90;999.90;;;7.40;83.70;;;;;;5019992;28;20174;-80
2021/04/25 01:37:26;;;;;;;1999.90;999.90;;;7.50;80.80;;;;;;5020601;28;20193;-80
2021/04/25 01:39:52;;;;;;;1999.90;999.90;;;7.50;79.00;;;;;;5019936;28;20166;-80
2021/04/25 01:42:18;;;;;;;1999.90;999.90;;;7.50;82.40;;;;;;5020279;28;20217;-80
2021/04/25 01:44:44;;;;;;;1999.90;999.90;;;7.60;81.30;;;;;;5022184;28;20159;-80
2021/04/25 01:47:09;;;;;;;1999.90;999.90;;;7.40;84.10;;;;;;5024917;28;20207;-79
2021/04/25 01:49:35;;;;;;;1999.90;999.90;;;7.30;87.80;;;;;;5025955;28;20185;-80
2021/04/25 01:52:02;;;;;;;1999.90;999.90;;;7.30;89.00;;;;;;5024554;28;20233;-80
2021/04/25 01:54:28;;;;;;;1999.90;999.90;;;7.30;90.10;;;;;;5025505;28;20173;-80
2021/04/25 01:56:53;;;;;;;1999.90;999.90;;;7.20;90.10;;;;;;5026690;28;20273;-80
2021/04/25 01:59:19;;;;;;;1999.90;999.90;;;7.30;90.70;;;;;;5024795;28;20397;-79
2021/04/25 02:01:45;;;;;;;1999.90;999.90;;;7.30;90.90;;;;;;5007948;28;20251;-80
2021/04/25 02:04:12;;;;;;;1999.90;999.90;;;7.20;92.10;;;;;;5094313;23;20221;-84
2021/04/25 02:06:42;;;;;;;1999.90;999.90;;;7.10;94.10;;;;;;5014792;28;20189;-84
2021/04/25 02:09:11;;;;;;;1999.90;999.90;;;7.00;94.10;;;;;;5013970;28;20170;-84
2021/04/25 02:11:37;;;;;;;1999.90;999.90;;;7.10;94.30;;;;;;5015283;28;20170;-83
2021/04/25 02:14:05;;;;;;;1999.90;999.90;;;7.10;93.00;;;;;;5032272;28;20230;-84
2021/04/25 02:16:31;;;;;;;1999.90;999.90;;;7.20;91.30;;;;;;5013919;28;20170;-84
2021/04/25 02:19:00;;;;;;;1999.90;999.90;;;7.10;92.80;;;;;;5031683;28;20174;-83
2021/04/25 02:21:26;;;;;;;1999.90;999.90;;;7.10;93.40;;;;;;5031874;28;20452;-83
2021/04/25 02:23:54;;;;;;;1999.90;999.90;;;7.20;93.40;;;;;;5031797;28;20165;-83
2021/04/25 02:26:20;;;;;;;1999.90;999.90;;;7.10;93.50;;;;;;5031462;28;20176;-84
2021/04/25 02:28:46;;;;;;;1999.90;999.90;;;7.20;92.30;;;;;;5031911;28;20166;-83
2021/04/25 02:31:12;;;;;;;1999.90;999.90;;;7.20;93.30;;;;;;5031184;28;20212;-84
2021/04/25 02:33:38;;;;;;;1999.90;999.90;;;7.10;93.70;;;;;;5014549;28;20173;-84
2021/04/25 02:36:05;;;;;;;1999.90;999.90;;;7.10;93.40;;;;;;5030730;28;20412;-84
2021/04/25 02:38:31;;;;;;;1999.90;999.90;;;7.00;94.40;;;;;;5030597;28;20181;-83
2021/04/25 02:40:57;;;;;;;1999.90;999.90;;;7.10;93.50;;;;;;5030609;28;20672;-83
2021/04/25 02:43:26;;;;;;;1999.90;999.90;;;7.00;94.40;;;;;;5030270;28;20201;-83
2021/04/25 02:45:52;;;;;;;1999.90;999.90;;;6.90;95.80;;;;;;5029578;28;20170;-83
2021/04/25 02:48:17;;;;;;;1999.90;999.90;;;6.70;98.60;;;;;;5029280;28;20523;-83
2021/04/25 02:50:44;;;;;;;1999.90;999.90;;;6.70;98.20;;;;;;5028862;28;20221;-83
2021/04/25 02:53:13;;;;;;;1999.90;999.90;;;6.50;99.50;;;;;;5011840;28;20166;-83
2021/04/25 02:55:39;;;;;;;1999.90;999.90;;;6.60;98.80;;;;;;5028531;28;20216;-83
2021/04/25 02:58:06;;;;;;;1999.90;999.90;;;6.50;99.90;;;;;;5028526;28;20257;-83
2021/04/25 03:00:38;;;;;;;1999.90;999.90;;;6.30;99.90;;;;;;5028499;28;20176;-83
2021/04/25 03:03:04;;;;;;;1999.90;999.90;;;6.10;99.90;;;;;;5028316;28;20202;-83
2021/04/25 03:06:03;;;;;;;1999.90;999.90;;;6.00;99.90;;;;;;5028977;28;20181;-83
2021/04/25 03:08:28;;;;;;;1999.90;999.90;;;5.80;99.90;;;;;;4983788;28;20262;-84
2021/04/25 03:10:54;;;;;;;1999.90;999.90;;;5.70;99.90;;;;;;5010970;28;20162;-84
2021/04/25 03:13:23;;;;;;;1999.90;999.90;;;5.60;99.90;;;;;;5010098;28;20176;-82
2021/04/25 03:15:49;;;;;;;1999.90;999.90;;;5.60;99.90;;;;;;5027311;28;20404;-83
2021/04/25 03:18:15;;;;;;;1999.90;999.90;;;5.60;99.90;;;;;;5010253;28;20197;-83
2021/04/25 03:20:41;;;;;;;1999.90;999.90;;;5.50;99.90;;;;;;5028857;28;20229;-83
2021/04/25 03:23:06;;;;;;;1999.90;999.90;;;5.50;99.90;;;;;;5027388;28;20449;-82
2021/04/25 03:25:32;;;;;;;1999.90;999.90;;;5.40;99.90;;;;;;5009953;28;20174;-84
2021/04/25 03:28:00;;;;;;;1999.90;999.90;;;5.30;99.90;;;;;;5027292;28;20188;-83
2021/04/25 03:30:25;;;;;;;1999.90;999.90;;;5.20;99.90;;;;;;5029900;28;20225;-83
2021/04/25 03:32:51;;;;;;;1999.90;999.90;;;5.10;99.90;;;;;;5031524;28;20162;-83
2021/04/25 03:35:18;;;;;;;1999.90;999.90;;;5.10;99.90;;;;;;5013782;28;20630;-83
2021/04/25 03:37:45;;;;;;;1999.90;999.90;;;5.20;99.90;;;;;;5015022;28;20214;-83
2021/04/25 03:40:14;;;;;;;1999.90;999.90;;;5.10;99.90;;;;;;5029793;28;20193;-83
2021/04/25 03:42:39;;;;;;;1999.90;999.90;;;5.00;99.90;;;;;;5012149;28;20253;-83
2021/04/25 03:45:13;;;;;;;1999.90;999.90;;;5.10;99.90;;;;;;5030212;28;20169;-84
2021/04/25 03:47:39;;;;;;;1999.90;999.90;;;5.20;99.90;;;;;;5029722;28;20427;-83
2021/04/25 03:50:05;;;;;;;1999.90;999.90;;;5.20;99.90;;;;;;5030229;28;20225;-83
2021/04/25 03:52:31;;;;;;;1999.90;999.90;;;5.10;99.90;;;;;;5028848;28;20166;-83
2021/04/25 03:54:56;;;;;;;1999.90;999.90;;;5.00;99.90;;;;;;5029637;28;20192;-83
2021/04/25 03:57:22;;;;;;;1999.90;999.90;;;4.90;99.90;;;;;;5012852;28;20202;-83
2021/04/25 03:59:48;;;;;;;1999.90;999.90;;;5.00;99.90;;;;;;5029764;28;20170;-84
2021/04/25 04:02:17;;;;;;;1999.90;999.90;;;5.00;99.90;;;;;;5011624;28;20459;-83
2021/04/25 04:04:43;;;;;;;1999.90;999.90;;;4.80;99.90;;;;;;5012459;28;20446;-83
2021/04/25 04:07:08;;;;;;;1999.90;999.90;;;4.70;99.90;;;;;;5011698;28;20269;-83
2021/04/25 04:09:34;;;;;;;1999.90;999.90;;;4.70;99.90;;;;;;5029937;28;20165;-83
2021/04/25 04:12:00;;;;;;;1999.90;999.90;;;4.60;99.90;;;;;;5012528;28;20177;-83
2021/04/25 04:14:26;;;;;;;1999.90;999.90;;;4.50;99.90;;;;;;5011734;28;20177;-83
2021/04/25 04:16:52;;;;;;;1999.90;999.90;;;4.40;99.90;;;;;;5011754;28;20203;-83
2021/04/25 04:19:17;;;;;;;1999.90;999.90;;;4.40;99.90;;;;;;5011693;28;20900;-83
2021/04/25 04:21:43;;;;;;;1999.90;999.90;;;4.40;99.90;;;;;;5028753;28;20198;-83
2021/04/25 04:24:09;;;;;;;1999.90;999.90;;;4.40;99.90;;;;;;5028766;28;20166;-83
2021/04/25 04:26:42;;;;;;;1999.90;999.90;;;4.60;99.90;;;;;;5012230;28;20193;-83
2021/04/25 04:29:07;;;;;;;1999.90;999.90;;;4.70;99.90;;;;;;5029338;28;20381;-83
2021/04/25 04:31:33;;;;;;;1999.90;999.90;;;4.80;99.90;;;;;;5012133;28;20185;-83
2021/04/25 04:34:02;;;;;;;1999.90;999.90;;;4.80;99.90;;;;;;5028771;28;20174;-83
2021/04/25 04:36:28;;;;;;;1999.90;999.90;;;4.70;99.90;;;;;;5028650;28;20408;-83
2021/04/25 04:38:53;;;;;;;1999.90;999.90;;;4.80;99.90;;;;;;5029260;28;20161;-83
2021/04/25 04:41:19;;;;;;;1999.90;999.90;;;4.80;99.90;;;;;;5031990;28;20185;-83
2021/04/25 04:43:45;;;;;;;1999.90;999.90;;;4.80;99.90;;;;;;5015769;28;20174;-83
2021/04/25 04:46:16;;;;;;;1999.90;999.90;;;4.80;99.90;;;;;;5016437;28;20172;-83
2021/04/25 04:49:13;;;;;;;1999.90;999.90;;;5.00;99.90;;;;;;5014848;28;20245;-83
2021/04/25 04:51:41;;;;;;;1999.90;999.90;;;5.00;99.90;;;;;;5014705;28;20166;-83
2021/04/25 04:54:08;;;;;;;1999.90;999.90;;;5.00;99.90;;;;;;5032451;28;20514;-83
2021/04/25 04:56:34;;;;;;;1999.90;999.90;;;5.00;99.90;;;;;;5014781;28;20202;-83
2021/04/25 04:59:03;;;;;;;1999.90;999.90;;;5.00;99.90;;;;;;5014434;28;20178;-83
2021/04/25 05:01:31;;;;;;;1999.90;999.90;;;5.00;99.90;;;;;;5014708;28;20174;-83
2021/04/25 05:03:56;;;;;;;1999.90;999.90;;;5.20;99.90;;;;;;5015035;28;20185;-83
2021/04/25 05:06:22;;;;;;;1999.90;999.90;;;5.20;99.90;;;;;;5031756;28;20152;-83
2021/04/25 05:08:48;;;;;;;1999.90;999.90;;;5.30;99.90;;;;;;5013901;28;20169;-83
2021/04/25 05:11:14;;;;;;;1999.90;999.90;;;5.40;99.90;;;;;;5013633;28;20228;-83
2021/04/25 05:14:12;;;;;;;1999.90;999.90;;;5.40;99.90;;;;;;5013868;28;20190;-83
2021/04/25 05:16:41;;;;;;;1999.90;999.90;;;5.60;99.90;;;;;;5018895;28;20437;-83
2021/04/25 05:19:09;;;;;;;1999.90;999.90;;;5.80;99.90;;;;;;5031703;28;20161;-83
2021/04/25 05:21:35;;;;;;;1999.90;999.90;;;5.90;99.90;;;;;;5033564;28;20217;-83
2021/04/25 05:24:04;;;;;;;1999.90;999.90;;;6.00;99.90;;;;;;5032452;28;20169;-83
2021/04/25 05:26:41;;;;;;;1999.90;999.90;;;5.80;99.90;;;;;;5032215;28;20162;-83
2021/04/25 05:29:10;;;;;;;1999.90;999.90;;;5.80;99.90;;;;;;5014264;28;20172;-83
2021/04/25 05:31:36;;;;;;;1999.90;999.90;;;5.80;99.90;;;;;;5032603;28;20173;-83
2021/04/25 05:34:08;;;;;;;1999.90;999.90;;;6.00;99.90;;;;;;5014255;28;20188;-83
2021/04/25 05:36:45;;;;;;;1999.90;999.90;;;6.00;99.90;;;;;;5014753;28;20188;-83
2021/04/25 05:39:11;;;;;;;1999.90;999.90;;;6.00;99.90;;;;;;5032401;28;20161;-83
2021/04/25 05:41:37;;;;;;;1999.90;999.90;;;6.10;99.90;;;;;;5031876;28;20225;-83
2021/04/25 05:44:04;;;;;;;1999.90;999.90;;;6.10;99.90;;;;;;5030366;28;20166;-83
2021/04/25 05:46:29;;;;;;;1999.90;999.90;;;6.20;99.90;;;;;;5014641;28;20441;-83
2021/04/25 05:48:55;;;;;;;1999.90;999.90;;;6.30;99.90;;;;;;5031123;28;20165;-83
2021/04/25 05:51:27;;;;;;;1999.90;999.90;;;6.40;99.90;;;;;;5012610;28;20431;-83
2021/04/25 05:53:53;;;;;;;1999.90;999.90;;;6.50;99.90;;;;;;5013953;28;20653;-84
2021/04/25 05:56:22;;;;;;;1999.90;999.90;;;6.50;99.90;;;;;;5013551;28;20201;-83
2021/04/25 05:58:48;;;;;;;1999.90;999.90;;;6.50;99.90;;;;;;5013767;28;20404;-83
2021/04/25 06:01:15;;;;;;;1999.90;999.90;;;6.50;99.90;;;;;;5031059;28;20196;-83
2021/04/25 06:03:41;;;;;;;1999.90;999.90;;;6.60;99.90;;;;;;5031070;28;20165;-83
2021/04/25 06:06:12;;;;;;;1999.90;999.90;;;6.60;99.90;;;;;;5013862;28;20193;-83
2021/04/25 06:08:40;;;;;;;1999.90;999.90;;;6.50;99.90;;;;;;5029801;28;20467;-83
2021/04/25 06:11:06;;;;;;;1999.90;999.90;;;6.50;99.90;;;;;;5009625;28;20264;-82
2021/04/25 06:13:41;;;;;;;1999.90;999.90;;;6.60;99.90;;;;;;5007041;28;20205;-82
2021/04/25 06:16:12;;;;;;;1999.90;999.90;;;6.60;99.90;;;;;;5007574;28;20435;-82
2021/04/25 06:18:37;;;;;;;1999.90;999.90;;;6.60;99.90;;;;;;5024744;28;20324;-83
2021/04/25 06:21:03;;;;;;;1999.90;999.90;;;6.60;99.90;;;;;;5023881;28;20197;-82
2021/04/25 06:23:29;;;;;;;1999.90;999.90;;;6.70;99.90;;;;;;5023424;28;20254;-82
2021/04/25 06:25:55;;;;;;;1999.90;999.90;;;6.80;99.90;;;;;;5023478;28;20528;-83
2021/04/25 06:28:22;;;;;;;1999.90;999.90;;;6.80;99.90;;;;;;5023547;28;20253;-82
2021/04/25 06:30:47;;;;;;;1999.90;999.90;;;7.00;99.90;;;;;;5024214;28;20616;-81
2021/04/25 06:33:13;;;;;;;1999.90;999.90;;;7.00;99.90;;;;;;5006423;28;20182;-82
2021/04/25 06:35:40;;;;;;;1999.90;999.90;;;7.10;99.90;;;;;;5005918;28;20173;-82
2021/04/25 06:38:05;;;;;;;1999.90;999.90;;;7.10;99.90;;;;;;5022820;28;20213;-82
2021/04/25 06:40:36;;;;;;;1999.90;999.90;;;7.20;99.90;;;;;;5005395;28;20170;-82
2021/04/25 06:43:04;;;;;;;1999.90;999.90;;;7.30;96.80;;;;;;5023554;28;20173;-82
2021/04/25 06:45:30;;;;;;;1999.90;999.90;;;7.20;98.50;;;;;;5005380;28;20166;-82
2021/04/25 06:48:02;;;;;;;1999.90;999.90;;;7.30;98.10;;;;;;5006148;28;20653;-81
2021/04/25 06:50:28;;;;;;;1999.90;999.90;;;7.40;96.40;;;;;;5024947;28;20193;-82
2021/04/25 06:52:54;;;;;;;1999.90;999.90;;;7.40;92.80;;;;;;5006897;28;20551;-83
2021/04/25 06:55:22;;;;;;;1999.90;999.90;;;7.30;94.60;;;;;;5024538;28;20165;-83
2021/04/25 06:57:50;;;;;;;1999.90;999.90;;;7.40;92.70;;;;;;5007295;28;20186;-83
2021/04/25 07:00:17;;;;;;;1999.90;999.90;;;7.50;88.40;;;;;;5024809;28;20172;-82
2021/04/25 07:02:44;;;;;;;1999.90;999.90;;;7.50;91.00;;;;;;5032196;28;20197;-83
2021/04/25 07:05:13;;;;;;;1999.90;999.90;;;7.40;89.40;;;;;;5029564;28;20177;-84
2021/04/25 07:07:41;;;;;;;1999.90;999.90;;;7.50;85.80;;;;;;5028815;28;20177;-83
2021/04/25 07:10:28;;;;;;;1999.90;999.90;;;7.60;84.80;;;;;;5011479;28;20166;-83
2021/04/25 07:12:55;;;;;;;1999.90;999.90;;;7.80;84.70;;;;;;5028077;28;20194;-83
2021/04/25 07:15:20;;;;;;;1999.90;999.90;;;7.80;81.70;;;;;;5029430;28;20172;-83
2021/04/25 07:17:49;;;;;;;1999.90;999.90;;;7.90;78.00;;;;;;5029603;28;20206;-83
2021/04/25 07:20:18;;;;;;;1999.90;999.90;;;7.90;73.50;;;;;;5029480;28;20190;-83
2021/04/25 07:22:44;;;;;;;1999.90;999.90;;;7.80;66.50;;;;;;4995688;28;20217;-82
2021/04/25 07:25:11;;;;;;;1999.90;999.90;;;7.80;71.20;;;;;;5029214;28;20162;-83
2021/04/25 07:27:37;;;;;;;1999.90;999.90;;;7.90;73.00;;;;;;5028482;28;20178;-82
2021/04/25 07:30:08;;;;;;;1999.90;999.90;;;8.20;75.30;;;;;;5010516;28;20170;-83
2021/04/25 07:32:35;;;;;;;1999.90;999.90;;;7.90;59.30;;;;;;5011359;28;20224;-82
2021/04/25 07:35:01;;;;;;;1999.90;999.90;;;8.00;58.00;;;;;;5026182;28;20230;-82
2021/04/25 07:37:26;;;;;;;1999.90;999.90;;;7.90;61.50;;;;;;5010184;28;20201;-82
2021/04/25 07:39:52;;;;;;;1999.90;999.90;;;7.90;58.50;;;;;;5010385;28;20419;-83
2021/04/25 07:42:21;;;;;;;1999.90;999.90;;;7.80;54.00;;;;;;5028365;28;20285;-82
2021/04/25 07:44:46;;;;;;;1999.90;999.90;;;7.70;60.00;;;;;;5010623;28;20170;-83
2021/04/25 07:47:12;;;;;;;1999.90;999.90;;;7.80;61.00;;;;;;5008888;28;20190;-83
2021/04/25 07:49:38;;;;;;;1999.90;999.90;;;7.70;63.50;;;;;;5028822;28;20158;-83
2021/04/25 07:52:04;;;;;;;1999.90;999.90;;;7.90;62.30;;;;;;5028165;28;20480;-83
2021/04/25 07:54:30;;;;;;;1999.90;999.90;;;8.10;59.30;;;;;;5023766;28;20189;-83
2021/04/25 07:57:00;;;;;;;1999.90;999.90;;;8.20;58.80;;;;;;5024374;28;20908;-83
2021/04/25 07:59:26;;;;;;;1999.90;999.90;;;8.30;59.80;;;;;;5024238;28;20496;-83
2021/04/25 08:01:51;;;;;;;1999.90;999.90;;;8.40;51.80;;;;;;5006001;28;20213;-82
2021/04/25 08:04:17;;;;;;;1999.90;999.90;;;8.30;57.60;;;;;;5007630;28;20241;-83
2021/04/25 08:06:43;;;;;;;1999.90;999.90;;;8.50;48.90;;;;;;5008051;28;20196;-83
2021/04/25 08:09:10;;;;;;;1999.90;999.90;;;8.50;47.80;;;;;;5025901;28;20695;-83
2021/04/25 08:11:35;;;;;;;1999.90;999.90;;;8.30;53.60;;;;;;5025137;28;20648;-82
2021/04/25 08:14:02;;;;;;;1999.90;999.90;;;8.30;47.50;;;;;;5023099;28;20170;-83
2021/04/25 08:16:28;;;;;;;1999.90;999.90;;;8.10;50.60;;;;;;5023902;28;20691;-84
2021/04/25 08:18:54;;;;;;;1999.90;999.90;;;8.30;50.30;;;;;;5024198;28;20178;-82
2021/04/25 08:21:21;;;;;;;1999.90;999.90;;;8.30;46.40;;;;;;5022298;28;20180;-83
2021/04/25 08:23:46;;;;;;;1999.90;999.90;;;8.40;46.60;;;;;;5022885;28;20209;-83
2021/04/25 08:26:15;;;;;;;1999.90;999.90;;;8.40;47.60;;;;;;5022607;28;20162;-83
2021/04/25 08:28:41;;;;;;;1999.90;999.90;;;8.50;46.80;;;;;;5004422;28;20300;-83
2021/04/25 08:31:07;;;;;;;1999.90;999.90;;;8.60;42.60;;;;;;5022986;28;20150;-83
2021/04/25 08:33:32;;;;;;;1999.90;999.90;;;8.30;36.30;;;;;;5023490;28;20173;-84
2021/04/25 08:35:58;;;;;;;1999.90;999.90;;;8.30;37.60;;;;;;5022920;28;20260;-84
2021/04/25 08:38:23;;;;;;;1999.90;999.90;;;8.00;42.20;;;;;;5006243;28;20237;-83
2021/04/25 08:40:49;;;;;;;1999.90;999.90;;;8.00;45.40;;;;;;5023071;28;20201;-83
2021/04/25 08:43:15;;;;;;;1999.90;999.90;;;7.80;44.50;;;;;;5024205;28;20242;-83
2021/04/25 08:45:46;;;;;;;1999.90;999.90;;;7.90;47.50;;;;;;5026295;28;20174;-83
2021/04/25 08:48:13;;;;;;;1999.90;999.90;;;7.80;47.30;;;;;;5025260;28;20270;-82
2021/04/25 08:50:40;;;;;;;1999.90;999.90;;;7.90;46.80;;;;;;5023923;28;20158;-83
2021/04/25 08:53:06;;;;;;;1999.90;999.90;;;7.90;45.40;;;;;;5007176;28;20193;-83
2021/04/25 08:55:33;;;;;;;1999.90;999.90;;;7.90;49.00;;;;;;5024165;28;20170;-83
2021/04/25 08:57:59;;;;;;;1999.90;999.90;;;8.00;45.30;;;;;;5023631;28;20185;-82
2021/04/25 09:00:25;;;;;;;1999.90;999.90;;;8.00;46.70;;;;;;5023083;28;20181;-82
2021/04/25 09:02:53;;;;;;;1999.90;999.90;;;8.10;48.50;;;;;;5004755;28;20193;-83
2021/04/25 09:05:20;;;;;;;1999.90;999.90;;;8.30;48.40;;;;;;5006721;28;20177;-83
2021/04/25 09:08:12;;;;;;;1999.90;999.90;;;8.40;41.90;;;;;;5025741;28;20182;-83
2021/04/25 09:10:40;;;;;;;1999.90;999.90;;;8.50;42.80;;;;;;5022804;28;20186;-83
2021/04/25 09:13:24;;;;;;;1999.90;999.90;;;8.50;37.30;;;;;;5025970;28;20292;-83
2021/04/25 09:15:55;;;;;;;1999.90;999.90;;;8.50;46.20;;;;;;5024143;28;20169;-82
2021/04/25 09:18:35;;;;;;;1999.90;999.90;;;8.70;42.40;;;;;;5006718;28;20197;-83
2021/04/25 09:21:19;;;;;;;1999.90;999.90;;;8.80;36.90;;;;;;5025015;28;20186;-83
2021/04/25 09:23:44;;;;;;;1999.90;999.90;;;8.80;37.50;;;;;;5007822;28;20165;-84
2021/04/25 09:26:11;;;;;;;1999.90;999.90;;;8.90;36.80;;;;;;5026827;28;20161;-83
2021/04/25 09:28:40;;;;;;;1999.90;999.90;;;8.90;31.80;;;;;;5028711;28;20181;-83
2021/04/25 09:31:09;;;;;;;1999.90;999.90;;;9.00;32.30;;;;;;5028396;28;20154;-83
2021/04/25 09:33:58;;;;;;;1999.90;999.90;;;9.00;31.00;;;;;;5026900;28;20166;-84
2021/04/25 09:36:27;;;;;;;1999.90;999.90;;;9.10;29.10;;;;;;5026168;28;20175;-83
2021/04/25 09:39:14;;;;;;;1999.90;999.90;;;9.10;24.50;;;;;;5026193;28;20681;-83
2021/04/25 09:41:40;;;;;;;1999.90;999.90;;;9.10;23.80;;;;;;5007574;28;20212;-83
2021/04/25 09:44:07;;;;;;;1999.90;999.90;;;9.10;23.30;;;;;;5025986;28;20154;-83
2021/04/25 09:46:53;;;;;;;1999.90;999.90;;;9.30;24.10;;;;;;5007896;28;20170;-83
2021/04/25 09:49:42;;;;;;;1999.90;999.90;;;9.20;21.60;;;;;;5024604;28;20237;-82
2021/04/25 09:52:11;;;;;;;1999.90;999.90;;;9.50;21.20;;;;;;5009688;28;20165;-83
2021/04/25 09:54:37;;;;;;;1999.90;999.90;;;9.50;17.30;;;;;;5026339;28;20173;-83
2021/04/25 09:57:03;;;;;;;1999.90;999.90;;;9.70;19.70;;;;;;5007928;28;20209;-83
2021/04/25 09:59:29;;;;;;;1999.90;999.90;;;9.80;19.30;;;;;;5007136;28;20174;-84
2021/04/25 10:02:06;;;;;;;1999.90;999.90;;;9.80;14.90;;;;;;5024759;28;20201;-83
2021/04/25 10:04:37;;;;;;;1999.90;999.90;;;9.70;15.40;;;;;;5006888;28;20421;-84
2021/04/25 10:07:05;;;;;;;1999.90;999.90;;;9.90;15.70;;;;;;5024735;28;20209;-83
2021/04/25 10:09:35;;;;;;;1999.90;999.90;;;10.00;13.00;;;;;;5005984;28;20182;-83
2021/04/25 10:12:05;;;;;;;1999.90;999.90;;;10.20;11.80;;;;;;5007033;28;20237;-84
2021/04/25 10:14:33;;;;;;;1999.90;999.90;;;10.40;10.10;;;;;;5007293;28;20169;-83
2021/04/25 10:17:00;;;;;;;1999.90;999.90;;;10.60;8.70;;;;;;5007471;28;20261;-83
2021/04/25 10:19:26;;;;;;;1999.90;999.90;;;10.80;7.70;;;;;;5007996;28;20184;-84
2021/04/25 10:21:53;;;;;;;1999.90;999.90;;;10.80;5.80;;;;;;5008778;28;20244;-84
2021/04/25 10:24:20;;;;;;;1999.90;999.90;;;10.90;6.60;;;;;;5009826;28;20180;-84
2021/04/25 10:27:02;;;;;;;1999.90;999.90;;;11.10;5.50;;;;;;5011057;28;20577;-83
2021/04/25 10:29:55;;;;;;;1999.90;999.90;;;11.10;2.60;;;;;;5011083;28;20165;-84
2021/04/25 10:32:22;;;;;;;1999.90;999.90;;;11.30;1.40;;;;;;5007711;28;20696;-83
2021/04/25 10:35:11;;;;;;;1999.90;999.90;;;11.40;1.20;;;;;;5008191;28;20290;-85
2021/04/25 10:37:38;;;;;;;1999.90;999.90;;;11.60;1.20;;;;;;5024345;28;20186;-82
2021/04/25 10:40:27;;;;;;;1999.90;999.90;;;11.50;1.00;;;;;;5024694;28;20169;-84
2021/04/25 10:43:01;;;;;;;1999.90;999.90;;;11.70;1.00;;;;;;5026438;28;20253;-84
2021/04/25 10:45:34;;;;;;;1999.90;999.90;;;11.70;1.30;;;;;;5028387;28;20149;-85
2021/04/25 10:48:18;;;;;;;1999.90;999.90;;;11.90;1.00;;;;;;5027304;28;20194;-83
2021/04/25 10:51:03;;;;;;;1999.90;999.90;;;11.90;1.00;;;;;;5010205;28;20174;-84
2021/04/25 10:53:32;;;;;;;1999.90;999.90;;;12.20;1.40;;;;;;5027495;28;20155;-84
2021/04/25 10:56:13;;;;;;;1999.90;999.90;;;12.50;1.00;;;;;;5027398;28;20257;-85
2021/04/25 10:58:41;;;;;;;1999.90;999.90;;;12.70;1.00;;;;;;5027555;28;20182;-85
2021/04/25 11:01:07;;;;;;;1999.90;999.90;;;12.60;1.00;;;;;;5010028;28;20262;-84
2021/04/25 11:03:33;;;;;;;1999.90;999.90;;;12.80;1.00;;;;;;5027708;28;20270;-85
2021/04/25 11:05:59;;;;;;;1999.90;999.90;;;12.70;1.00;;;;;;5028020;28;20165;-85
2021/04/25 11:08:30;;;;;;;1999.90;999.90;;;12.60;1.00;;;;;;5027519;28;20197;-85
2021/04/25 11:11:01;;;;;;;1999.90;999.90;;;12.60;1.00;;;;;;5009821;28;20169;-85
2021/04/25 11:13:36;;;;;;;1999.90;999.90;;;12.40;1.00;;;;;;5027320;28;20594;-85
2021/04/25 11:16:21;;;;;;;1999.90;999.90;;;12.30;1.00;;;;;;5010642;28;20170;-85
2021/04/25 11:18:51;;;;;;;1999.90;999.90;;;12.30;1.00;;;;;;5010963;28;20158;-85
2021/04/25 11:21:30;;;;;;;1999.90;999.90;;;12.00;1.00;;;;;;5009895;28;20170;-85
2021/04/25 11:24:19;;;;;;;1999.90;999.90;;;12.30;1.00;;;;;;5010137;28;20185;-84
2021/04/25 11:26:57;;;;;;;1999.90;999.90;;;12.30;1.00;;;;;;5013509;28;20196;-85
2021/04/25 11:29:50;;;;;;;1999.90;999.90;;;12.90;1.00;;;;;;5026819;28;20150;-85
2021/04/25 11:32:29;;;;;;;1999.90;999.90;;;13.00;1.00;;;;;;5008999;28;20158;-84
2021/04/25 11:35:01;;;;;;;1999.90;999.90;;;12.90;1.00;;;;;;5010208;28;20154;-85
2021/04/25 11:37:27;;;;;;;1999.90;999.90;;;12.90;1.00;;;;;;5027187;28;20246;-85
2021/04/25 11:40:07;;;;;;;1999.90;999.90;;;13.00;1.00;;;;;;5026541;28;20216;-84
2021/04/25 11:42:36;;;;;;;1999.90;999.90;;;13.20;1.00;;;;;;5026418;28;20312;-85
2021/04/25 11:45:17;;;;;;;1999.90;999.90;;;13.10;1.00;;;;;;5009945;28;20170;-84
2021/04/25 11:48:15;;;;;;;1999.90;999.90;;;13.20;1.00;;;;;;5023434;28;20201;-85
2021/04/25 11:50:41;;;;;;;1999.90;999.90;;;13.20;1.00;;;;;;5024332;28;20609;-84
2021/04/25 11:53:06;;;;;;;1999.90;999.90;;;13.60;1.00;;;;;;5027575;28;20197;-85
2021/04/25 11:55:33;;;;;;;1999.90;999.90;;;13.80;1.00;;;;;;5009216;28;20174;-84
2021/04/25 11:58:00;;;;;;;1999.90;999.90;;;13.60;1.00;;;;;;5010041;28;20209;-85
2021/04/25 12:00:31;;;;;;;1999.90;999.90;;;13.70;1.00;;;;;;5027533;28;20413;-85
2021/04/25 12:03:01;;;;;;;1999.90;999.90;;;13.60;1.00;;;;;;5026679;28;20185;-85
2021/04/25 12:05:30;;;;;;;1999.90;999.90;;;13.70;1.00;;;;;;5025793;28;20204;-84
2021/04/25 12:08:00;;;;;;;1999.90;999.90;;;14.00;1.00;;;;;;5026391;28;20425;-84
2021/04/25 12:10:53;;;;;;;1999.90;999.90;;;14.30;1.00;;;;;;5027308;28;20208;-85
2021/04/25 12:13:25;;;;;;;1999.90;999.90;;;13.80;1.00;;;;;;5026931;28;20391;-84
2021/04/25 12:16:04;;;;;;;1999.90;999.90;;;13.90;1.00;;;;;;5009263;28;20196;-84
2021/04/25 12:18:36;;;;;;;1999.90;999.90;;;13.80;1.00;;;;;;5007007;28;20436;-85